KFME

Tipton Airport

Fort Meade(Odenton), Maryland, USA
METAR KFME 230815Z AUTO 00000KT 3SM CLR 17/17 A2994 RMK AO1
Observed Flight Rules
May-23 @ 08:15 UTC (25 minutes ago) Marginal Visual Flight Rules
Visibility Clouds
3 miles
  • Clear skies
Temperatures Readings
Current 17°C / 63°F
Dewpoint 17°C / 63°F
Humidity 100%
Altimeter 29.94" Hg
Pressure 1014 hPa
Elevation 46
METAR KFME 230815Z AUTO 00000KT 3SM CLR 17/17 A2994 RMK AO1
Observed Flight Rules
May-23 @ 08:15 UTC
(25 minutes ago)
MVFR
Clouds
  • Clear skies
Temperature Dewpoint
17°C / 63°F 17°C / 63°F
Humidity Altimeter Pressure
100% 29.94" Hg 1014 hPa